Latest Weather Observations for Warrnambool

IDV60801

Issued at 2:35 pm EDT Sunday 23 November 2014 (issued every 30 minutes, with the page automatically refreshed every 10 minutes)

About weather observations | Map of weather stations | Latest weather observations for VIC | Other Formats
Station Details ID: 090186 Name: WARRNAMBOOL AIRPORT NDB Lat: -38.29 Lon: 142.45 Height: 70.8 m
Data from the previous 72 hours. | See also: Recent months at Warrnambool
Date/Time
EDT
Temp
°C
App
Temp
°C
Dew
Point
Rel
Hum
%
Delta-T
°C
Wind Press
QNH
hPa
Press
MSL
hPa
Rain
since 9 am
mm
Dir
 
Spd
km/h
Gust
km/h
Spd
kts
Gust
kts
23/02:30pm 20.7 17.3 10.5 52 5.6 SSW 19 28 10 15 1012.2 1012.2 0.0
23/02:00pm 20.4 17.3 10.2 52 5.5 S 17 26 9 14 1012.3 1012.3 0.0
23/01:30pm 20.8 17.1 10.3 51 5.7 SSW 20 28 11 15 1012.1 1012.1 0.0
23/01:00pm 21.1 17.7 12.5 58 4.9 SW 22 32 12 17 1011.9 1011.9 0.0
23/12:30pm 21.4 18.2 12.0 55 5.3 S 20 24 11 13 1011.8 1011.8 0.0
23/12:00pm 20.8 18.4 8.8 46 6.3 NNW 11 17 6 9 1012.3 1012.3 0.0
23/11:30am 19.5 16.8 9.1 51 5.5 WNW 13 20 7 11 1012.5 1012.5 0.0
23/11:00am 19.0 17.2 9.5 54 5.0 WNW 9 15 5 8 1012.7 1012.7 0.0
23/10:30am 18.2 17.4 12.9 71 3.0 WNW 9 15 5 8 1013.2 1013.1 0.0
23/10:00am 16.0 16.2 15.7 98 0.2 NW 9 15 5 8 1013.5 1013.4 0.0
23/09:30am 15.2 14.8 15.2 100 0.0 N 11 15 6 8 1013.7 1013.6 0.0
23/09:00am 14.0 12.8 14.0 100 0.0 N 13 17 7 9 1013.6 1013.5 0.2
23/08:30am 12.4 10.7 12.4 100 0.0 N 13 15 7 8 1013.2 1013.1 0.2
23/08:00am 12.3 10.9 12.3 100 0.0 N 11 11 6 6 1012.9 1012.8 0.2
23/07:30am 11.2 9.9 11.2 100 0.0 NNW 9 9 5 5 1012.4 1012.4 0.0
23/07:00am 10.3 8.7 10.1 99 0.1 N 9 11 5 6 1012.2 1012.2 0.0
23/06:30am 9.9 8.2 9.8 99 0.1 N 9 13 5 7 1011.8 1011.8 0.0
23/06:00am 8.8 6.8 8.7 99 0.0 N 9 11 5 6 1011.3 1011.3 0.0
23/05:30am 8.7 6.3 8.6 99 0.0 N 11 13 6 7 1011.0 1011.0 0.0
23/05:00am 9.4 7.2 9.3 99 0.0 NNW 11 13 6 7 1010.9 1010.9 0.0
23/04:30am 9.6 7.4 9.5 99 0.0 NNW 11 13 6 7 1010.7 1010.7 0.0
23/04:00am 10.1 8.0 9.9 99 0.1 NW 11 13 6 7 1010.6 1010.6 0.0
23/03:30am 9.8 8.1 9.7 99 0.1 NNW 9 9 5 5 1010.6 1010.6 0.0
23/03:00am 10.0 8.3 9.9 99 0.1 NW 9 13 5 7 1010.7 1010.7 0.0
23/02:30am 8.7 6.6 8.4 98 0.1 NW 9 13 5 7 1010.9 1010.9 0.0
23/02:00am 9.0 6.9 8.4 96 0.3 NNW 9 13 5 7 1010.7 1010.7 0.0
23/01:30am 10.3 8.2 9.8 97 0.3 NNW 11 13 6 7 1010.8 1010.8 0.0
23/01:00am 10.5 8.7 9.6 94 0.5 WNW 9 13 5 7 1010.9 1010.9 0.0
23/12:30am 12.3 10.3 11.5 95 0.4 W 13 15 7 8 1010.8 1010.8 0.0
23/12:00am 13.1 11.7 12.2 94 0.5 W 11 15 6 8 1010.8 1010.8 0.0
 
Date/Time
EDT
Temp
°C
App
Temp
°C
Dew
Point
Rel
Hum
%
Delta-T
°C
Wind Press
QNH
hPa
Press
MSL
hPa
Rain
since 9 am
mm
Dir
 
Spd
km/h
Gust
km/h
Spd
kts
Gust
kts
22/11:30pm 13.6 11.9 12.3 92 0.7 W 13 15 7 8 1010.6 1010.6 0.0
22/11:00pm 14.3 13.1 12.7 90 0.9 W 11 13 6 7 1010.4 1010.4 0.0
22/10:30pm 15.4 14.1 13.6 89 1.0 WSW 13 19 7 10 1010.2 1010.2 0.0
22/10:00pm 15.8 14.9 13.8 88 1.1 WSW 11 17 6 9 1009.9 1009.9 0.0
22/09:30pm 15.6 14.2 13.3 86 1.3 SW 13 17 7 9 1009.4 1009.4 0.0
22/09:00pm 16.1 14.8 13.6 85 1.4 SW 13 19 7 10 1008.9 1008.9 0.0
22/08:30pm 16.2 13.0 13.1 82 1.7 SW 22 32 12 17 1008.2 1008.2 0.0
22/08:00pm 16.9 11.5 12.8 77 2.3 SW 33 44 18 24 1007.4 1007.3 0.0
22/07:30pm 17.6 11.7 13.5 77 2.3 WSW 37 46 20 25 1006.6 1006.5 0.0
22/07:00pm 18.6 13.0 13.2 71 3.1 WSW 35 46 19 25 1006.0 1005.9 0.0
22/06:55pm 19.0 13.0 13.2 69 3.3 WSW 37 56 20 30 1006.0 1005.9 0.0
22/06:30pm 20.5 13.7 13.2 63 4.2 WSW 41 56 22 30 1005.6 1005.5 0.0
22/06:00pm 22.2 15.8 13.3 57 5.2 WSW 39 56 21 30 1005.1 1005.0 0.0
22/05:30pm 21.9 16.8 13.8 60 4.7 SW 33 43 18 23 1004.7 1004.6 0.0
22/05:00pm 24.1 19.2 13.6 52 6.2 SW 32 41 17 22 1004.4 1004.3 0.0
22/04:30pm 25.3 19.8 13.5 48 6.9 SW 35 48 19 26 1004.3 1004.2 0.0
22/04:15pm 26.7 21.8 11.2 38 8.8 WSW 28 35 15 19 1004.4 1004.3 0.0
22/04:00pm 31.8 25.3 10.5 27 12.3 NW 35 54 19 29 1003.9 1003.8 0.0
22/03:30pm 31.3 24.7 10.1 27 12.1 NNW 35 48 19 26 1004.0 1003.9 0.0
22/03:01pm 31.3 24.4 8.9 25 12.6 NNW 35 54 19 29 1004.2 1004.1 0.0
22/03:00pm 31.5 24.3 9.1 25 12.6 NNW 37 54 20 29 1004.2 1004.1 0.0
22/02:43pm 30.7 22.4 7.8 24 12.6 NNW 41 59 22 32 1004.3 1004.2 0.0
22/02:30pm 31.0 22.9 8.7 25 12.4 NNW 41 57 22 31 1004.5 1004.4 0.0
22/02:00pm 30.5 21.9 8.3 25 12.3 N 43 65 23 35 1004.8 1004.7 0.0
22/01:30pm 30.7 21.6 8.4 25 12.4 NNW 46 67 25 36 1005.1 1005.0 0.0
22/01:07pm 29.3 20.7 6.7 24 12.1 N 41 61 22 33 1005.4 1005.3 0.0
22/01:00pm 28.6 20.0 6.7 25 11.7 N 41 54 22 29 1005.5 1005.4 0.0
22/12:30pm 28.6 21.8 9.3 30 10.7 N 35 54 19 29 1006.0 1005.9 0.0
22/12:27pm 28.8 21.7 7.9 27 11.4 N 35 54 19 29 1006.0 1005.9 0.0
22/12:00pm 28.5 21.8 9.7 31 10.6 N 35 44 19 24 1006.5 1006.4 0.0
22/11:30am 26.0 19.7 9.8 36 9.0 N 33 48 18 26 1006.6 1006.5 0.0
22/11:00am 24.1 18.5 10.0 41 7.8 N 30 43 16 23 1007.4 1007.3 0.0
22/10:30am 21.1 16.1 9.7 48 6.1 N 26 39 14 21 1007.4 1007.3 0.0
22/10:00am 20.6 15.8 10.4 52 5.6 N 26 35 14 19 1008.2 1008.2 0.0
22/09:30am 20.3 16.4 12.0 59 4.6 NNE 24 33 13 18 1008.2 1008.2 0.0
22/09:00am 17.3 12.8 11.3 68 3.3 NNE 26 33 14 18 1007.7 1007.6 0.0
22/08:30am 16.4 13.1 12.9 80 2.0 NNE 22 32 12 17 1007.7 1007.6 0.0
22/08:00am 13.7 11.7 12.6 93 0.6 N 15 17 8 9 1008.1 1008.1 0.0
22/07:30am 11.9 7.0 11.3 96 0.3 NNE 28 39 15 21 1007.5 1007.4 0.0
22/07:25am 11.9 7.4 11.3 96 0.3 NE 26 32 14 17 1007.4 1007.3 0.0
22/07:00am 11.4 7.8 10.6 95 0.4 N 20 26 11 14 1009.4 1009.4 0.0
22/06:30am 11.3 10.1 10.4 94 0.5 N 7 9 4 5 1010.1 1010.1 0.0
22/06:00am 11.0 8.2 10.1 94 0.5 ENE 15 20 8 11 1008.8 1008.8 0.0
22/05:30am 10.8 9.4 9.7 93 0.6 ENE 7 11 4 6 1009.5 1009.5 0.0
22/05:00am 10.5 8.6 9.1 91 0.7 ENE 9 11 5 6 1009.4 1009.4 0.0
22/04:30am 11.0 8.9 9.6 91 0.7 WSW 11 19 6 10 1010.4 1010.4 0.0
22/04:00am 11.4 9.7 9.8 90 0.8 WNW 9 11 5 6 1010.5 1010.5 0.0
22/03:30am 11.5 9.4 9.9 90 0.8 NE 11 17 6 9 1009.6 1009.6 0.0
22/03:00am 10.8 7.5 9.4 91 0.7 NNE 17 24 9 13 1009.1 1009.1 0.0
22/02:30am 10.5 7.0 8.9 90 0.8 NNE 17 20 9 11 1009.5 1009.5 0.0
22/02:00am 10.6 7.9 8.9 89 0.8 NNE 13 17 7 9 1009.7 1009.7 0.0
22/01:30am 11.0 7.7 9.6 91 0.7 NNE 17 20 9 11 1010.0 1010.0 0.0
22/01:00am 10.6 8.0 9.2 91 0.7 NNE 13 20 7 11 1010.5 1010.5 0.0
22/12:30am 10.8 8.3 9.7 93 0.6 NE 13 19 7 10 1010.9 1010.9 0.0
22/12:00am 9.8 7.4 8.6 92 0.6 NNE 11 15 6 8 1011.9 1011.9 0.0
 
Date/Time
EDT
Temp
°C
App
Temp
°C
Dew
Point
Rel
Hum
%
Delta-T
°C
Wind Press
QNH
hPa
Press
MSL
hPa
Rain
since 9 am
mm
Dir
 
Spd
km/h
Gust
km/h
Spd
kts
Gust
kts
21/11:30pm 10.1 7.7 8.7 91 0.7 NE 11 13 6 7 1011.8 1011.8 0.0
21/11:00pm 9.7 8.1 8.1 90 0.8 ENE 6 9 3 5 1012.1 1012.1 0.0
21/10:30pm 9.6 8.7 7.9 89 0.8 ENE 2 7 1 4 1012.6 1012.6 0.0
21/10:00pm 10.6 10.3 8.5 87 1.0 CALM 0 0 0 0 1012.6 1012.6 0.0
21/09:30pm 11.4 10.3 8.6 83 1.4 SE 4 7 2 4 1012.3 1012.3 0.0
21/09:00pm 11.9 10.3 8.6 80 1.6 S 7 7 4 4 1012.2 1012.2 0.0
21/08:30pm 12.9 10.8 8.4 74 2.2 S 9 13 5 7 1012.1 1012.1 0.0
21/08:00pm 14.8 11.8 9.4 70 2.8 SSW 15 19 8 10 1011.9 1011.9 0.0
21/07:30pm 16.1 13.2 9.5 65 3.4 S 15 19 8 10 1011.5 1011.5 0.0
21/07:00pm 16.5 13.2 9.4 63 3.7 S 17 20 9 11 1011.0 1011.0 0.0
21/06:30pm 16.8 13.5 9.5 62 3.8 SSW 17 22 9 12 1011.0 1011.0 0.0
21/06:00pm 17.1 13.4 9.5 61 4.0 S 19 26 10 14 1010.7 1010.7 0.0
21/05:30pm 17.8 13.9 9.4 58 4.4 S 20 26 11 14 1010.8 1010.8 0.0
21/05:00pm 18.1 14.5 10.0 59 4.3 S 19 26 10 14 1010.8 1010.8 0.0
21/04:30pm 18.5 15.3 9.8 57 4.6 S 17 24 9 13 1010.8 1010.8 0.0
21/04:00pm 18.6 14.8 9.7 56 4.7 S 20 24 11 13 1011.0 1011.0 0.0
21/03:30pm 18.4 14.4 9.2 55 4.8 SSW 20 28 11 15 1011.1 1011.1 0.0
21/03:00pm 18.7 15.8 9.5 55 4.9 S 15 24 8 13 1011.2 1011.2 0.0
21/02:30pm 18.8 15.9 9.6 55 4.9 SSW 15 20 8 11 1011.4 1011.4 0.0
21/02:00pm 18.5 15.6 9.8 57 4.6 SSW 15 22 8 12 1011.6 1011.6 0.0
21/01:30pm 17.6 14.1 8.7 56 4.6 SSW 17 26 9 14 1011.9 1011.9 0.0
21/01:00pm 17.9 14.2 9.3 57 4.5 SSW 19 26 10 14 1012.1 1012.1 0.0
21/12:30pm 17.7 13.9 9.1 57 4.5 SW 19 30 10 16 1012.4 1012.4 0.0
21/12:00pm 18.2 13.9 9.3 56 4.7 WSW 22 33 12 18 1012.4 1012.4 0.0
21/11:30am 17.4 12.5 8.3 55 4.7 WSW 24 35 13 19 1012.4 1012.4 0.0
21/11:00am 16.2 11.5 7.9 58 4.2 WSW 22 32 12 17 1012.4 1012.4 0.0
21/10:30am 16.0 11.0 8.0 59 4.0 WSW 24 32 13 17 1012.1 1012.1 0.0
21/10:00am 15.9 10.6 8.6 62 3.7 WSW 26 39 14 21 1012.0 1012.0 0.0
21/09:30am 15.5 12.1 11.3 76 2.3 W 20 30 11 16 1012.0 1012.0 0.0
21/09:00am 14.9 12.4 13.4 91 0.8 WSW 19 24 10 13 1011.7 1011.7 2.0
21/08:30am 12.6 10.8 12.0 96 0.3 WNW 13 17 7 9 1011.5 1011.5 2.0
21/08:00am 12.2 10.3 11.9 98 0.2 NW 13 17 7 9 1010.7 1010.7 2.0
21/07:30am 12.0 10.4 11.7 98 0.2 NW 11 13 6 7 1010.2 1010.2 2.0
21/07:00am 11.4 9.7 11.2 99 0.1 WNW 11 17 6 9 1010.6 1010.6 2.0
21/06:30am 10.9 9.0 10.6 98 0.2 NW 11 15 6 8 1010.3 1010.3 2.0
21/06:00am 11.0 9.2 10.7 98 0.2 WNW 11 15 6 8 1009.7 1009.7 2.0
21/05:30am 11.3 8.8 11.0 98 0.2 W 15 19 8 10 1009.0 1009.0 2.0
21/05:00am 11.6 9.2 11.3 98 0.2 W 15 19 8 10 1008.4 1008.4 2.0
21/04:30am 12.3 9.7 12.1 99 0.1 WSW 17 20 9 11 1008.1 1008.1 2.0
21/04:00am 12.6 9.7 12.4 99 0.1 W 19 24 10 13 1008.1 1008.1 2.0
21/03:30am 12.7 9.3 12.5 99 0.1 W 22 35 12 19 1008.1 1008.1 2.0
21/03:00am 12.6 8.8 12.4 99 0.1 WSW 24 32 13 17 1008.0 1007.9 2.0
21/02:30am 13.0 9.3 12.8 99 0.1 WSW 24 35 13 19 1007.9 1007.8 1.8
21/02:00am 13.4 9.1 13.2 99 0.1 WSW 28 37 15 20 1007.6 1007.5 1.8
21/01:30am 13.9 11.3 13.7 99 0.1 W 20 28 11 15 1007.6 1007.5 1.6
21/01:00am 14.3 10.9 13.8 97 0.3 W 24 35 13 19 1007.6 1007.5 1.6
21/12:30am 14.4 11.4 13.6 95 0.4 W 22 32 12 17 1007.4 1007.3 1.6
21/12:00am 14.8 11.4 13.7 93 0.6 W 24 30 13 16 1007.4 1007.3 1.6
 
Date/Time
EDT
Temp
°C
App
Temp
°C
Dew
Point
Rel
Hum
%
Delta-T
°C
Wind Press
QNH
hPa
Press
MSL
hPa
Rain
since 9 am
mm
Dir
 
Spd
km/h
Gust
km/h
Spd
kts
Gust
kts
20/11:30pm 15.0 12.4 13.9 93 0.6 W 20 32 11 17 1007.4 1007.3 1.6
20/11:00pm 14.7 12.0 13.6 93 0.6 W 20 28 11 15 1007.1 1007.0 1.6
20/10:30pm 15.2 10.1 13.7 91 0.8 W 33 43 18 23 1006.4 1006.3 1.4
20/10:00pm 16.4 13.1 15.1 92 0.8 W 26 35 14 19 1006.3 1006.2 1.4
20/09:30pm 16.6 13.1 15.6 94 0.6 W 28 35 15 19 1005.6 1005.5 1.4
20/09:00pm 17.0 14.7 15.7 92 0.8 W 22 33 12 18 1005.1 1005.0 1.4
20/08:30pm 18.1 15.7 15.5 85 1.5 WSW 22 32 12 17 1004.8 1004.7 1.4
20/08:00pm 20.3 19.0 16.9 81 2.1 NNW 19 26 10 14 1004.3 1004.2 1.4
20/07:30pm 21.3 19.7 17.5 79 2.3 NW 22 28 12 15 1004.1 1004.0 1.4
20/07:00pm 20.7 18.8 17.7 83 1.9 NNW 24 32 13 17 1003.9 1003.8 1.4
20/06:30pm 20.5 17.9 17.7 84 1.7 NNW 28 43 15 23 1003.8 1003.7 1.4
20/06:00pm 20.7 18.2 18.1 85 1.6 NNW 28 37 15 20 1003.8 1003.7 1.4
20/05:30pm 20.2 18.0 17.8 86 1.5 NNW 26 35 14 19 1003.7 1003.6 1.4
20/05:00pm 19.8 17.3 18.1 90 1.1 NNW 28 35 15 19 1003.9 1003.8 1.4
20/04:30pm 19.6 17.0 17.9 90 1.0 N 28 48 15 26 1004.0 1003.9 1.4
20/04:29pm 19.6 17.0 17.9 90 1.0 N 28 48 15 26 1004.1 1004.0 1.4
20/04:00pm 19.8 18.1 18.1 90 1.1 NNW 24 33 13 18 1004.6 1004.5 1.0
20/03:30pm 20.0 17.5 18.1 89 1.2 NW 28 39 15 21 1005.3 1005.2 0.8
20/03:00pm 20.3 17.8 17.1 82 2.0 NW 26 37 14 20 1005.7 1005.6 0.6

Other Formats:

Comma delimited format used in spreadsheet applications
http://www.bom.gov.au/fwo/IDV60801/IDV60801.94837.axf

JavaScript Object Notation format (JSON) in row-major order
http://www.bom.gov.au/fwo/IDV60801/IDV60801.94837.json